Thunder radar more information blitzortung!


Radar de pluja more information rain snow radar


Visita la nostra xarxa de llocs de meteo:

Template documentation
and downloads

And another site



No particular awareness of the weather is required.    There are no Weather-warnings

Pagina Historial Weather Underground text

Diari Resum February 27, 2016 Unitats:  Mètric    Imperial   Tant
« Previous Dia
SegĂźent Dia »
Diari Setmana Mensual Anual Personalitzada
  Maxima: Minima: Media:
Temperatura: -17.8 °C -15.3 °C -13.7 °C
Punt de rosada: -17.8 °C -16.9 °C -15.9 °C
Humitat: Humidity % 62 % 76 %
Wind Speed: 0 km/h 0 km/h 9.5 km/h
RĂ fegues de vent: 0 km/h - -
Vent:- - ESE
Pression baro: 0 hPa 33386 hPa -
Precipitacions: 535.94 mm    
Historical Graphs
 
 
Dades de taula per February 27, 2016
Temps Temperatura Punt de rosada Pression baro Vent Wind Speed RĂ fegues de vent Humitat Rainfall Rate (Hourly)
-17.8 °C -17.8 °C 0 hPa Calm     Humidity % 0 mm
00:00 -12.9 °C -14.6 °C 33477.4 hPa East 20.8 km/h 23.3 km/h 82 % 0 mm
00:10 -13.1 °C -14.7 °C 33453.7 hPa East 18.2 km/h 33.6 km/h 82 % 0 mm
00:20 -13.1 °C -14.8 °C 33453.7 hPa East 7.7 km/h 20.8 km/h 81 % 0 mm
00:30 -13.1 °C -14.7 °C 33453.7 hPa ESE 5.1 km/h 15.6 km/h 82 % 0 mm
00:40 -13.1 °C -14.6 °C 33453.7 hPa ESE 5.1 km/h 15.6 km/h 83 % 0 mm
00:50 -13.1 °C -14.6 °C 33453.7 hPa East 2.6 km/h 5.1 km/h 83 % 0 mm
01:00 -13.1 °C -14.8 °C 33453.7 hPa West 5.1 km/h 7.7 km/h 81 % 0 mm
01:10 -13.2 °C -14.7 °C 33419.8 hPa SW 7.7 km/h 15.6 km/h 83 % 0 mm
01:20 -13.3 °C -14.8 °C 33419.8 hPa SW 7.7 km/h 12.9 km/h 83 % 0 mm
01:40 -13.4 °C -14.8 °C 33453.7 hPa SW 7.7 km/h 12.9 km/h 84 % 0 mm
01:50 -13.5 °C -14.8 °C 33477.4 hPa SW 7.7 km/h 12.9 km/h 85 % 0 mm
02:00 -13.6 °C -15.1 °C 33477.4 hPa SW 5.1 km/h 7.7 km/h 84 % 0 mm
02:10 -13.7 °C -15.1 °C 33477.4 hPa SW 5.1 km/h 7.7 km/h 84 % 0 mm
02:20 -13.9 °C -15.3 °C 33477.4 hPa SW 2.6 km/h 7.7 km/h 84 % 0 mm
02:30 -14 °C -15.5 °C 33477.4 hPa SW 5.1 km/h 7.7 km/h 83 % 0 mm
02:40 -14 °C -15.5 °C 33524.8 hPa Calm   5.1 km/h 83 % 0 mm
03:00 -14.1 °C -15.7 °C 33524.8 hPa Calm   2.6 km/h 82 % 0 mm
03:10 -14.1 °C -15.7 °C 33524.8 hPa WNW 2.6 km/h 2.6 km/h 82 % 0 mm
03:20 -14.1 °C -15.8 °C 33477.4 hPa Calm     81 % 0 mm
03:40 -13.8 °C -15.4 °C 33477.4 hPa Calm   2.6 km/h 81 % 0 mm
03:50 -13.5 °C -15.2 °C 33524.8 hPa Calm   5.1 km/h 81 % 0 mm
04:00 -13.5 °C -15.4 °C 33524.8 hPa Calm   2.6 km/h 79 % 0 mm
04:10 -13.4 °C -15.3 °C 33524.8 hPa Calm     79 % 0 mm
04:30 -13.2 °C -15.2 °C 33524.8 hPa ENE 5.1 km/h 7.7 km/h 78 % 0 mm
04:40 -13.2 °C -15.3 °C 33524.8 hPa ENE 2.6 km/h 15.6 km/h 77 % 0 mm
10:47 -12.9 °C -16.6 °C 33856.6 hPa Calm     63 % 0 mm
10:52 -13.1 °C -15.3 °C 33524.8 hPa East 6 km/h 6 km/h 76 % 330.2 mm
10:57 -13 °C -15.2 °C 33524.8 hPa East 6.3 km/h 6.3 km/h 76 % 330.2 mm
11:02 -12.9 °C -15.1 °C 33524.8 hPa NE 5.1 km/h 5.1 km/h 76 % 330.2 mm
11:07 -12.8 °C -15.2 °C 33524.8 hPa East 9 km/h 9 km/h 75 % 330.2 mm
11:12 -12.7 °C -15.1 °C 33524.8 hPa ENE 7.6 km/h 7.6 km/h 75 % 330.2 mm
11:17 -12.8 °C -15.2 °C 33524.8 hPa NNE 6.3 km/h 7.6 km/h 74 % 330.2 mm
11:22 -12.7 °C -15.2 °C 33524.8 hPa East 9.8 km/h 9.8 km/h 74 % 330.2 mm
11:27 -12.7 °C -15.2 °C 33524.8 hPa East 9.8 km/h 9.8 km/h 74 % 330.2 mm
11:32 -12.9 °C -15.2 °C 33524.8 hPa SW 9 km/h   75 % 330.2 mm
11:37 -13 °C -15.4 °C 33524.8 hPa ESE 9.3 km/h 9.3 km/h 74 % 330.2 mm
11:42 -13 °C -15.3 °C 33524.8 hPa Calm     75 % 330.2 mm
11:47 -13.1 °C -15.4 °C 33524.8 hPa Calm     75 % 330.2 mm
11:52 -13.1 °C -15.4 °C 33524.8 hPa Calm     75 % 0 mm
12:02 -13.2 °C -15.4 °C 33524.8 hPa NNE 6.3 km/h 6.3 km/h 76 % 0 mm
12:07 -13.2 °C -15.4 °C 33524.8 hPa NW 5.6 km/h   76 % 0 mm
12:17 -13.2 °C -15.3 °C 33524.8 hPa ENE 3.7 km/h 3.7 km/h 77 % 0 mm
12:22 -13.2 °C -15.2 °C 33524.8 hPa NW 3.7 km/h   78 % 0 mm
12:27 -13.3 °C -15.3 °C 33524.8 hPa NE 6 km/h 6 km/h 78 % 0 mm
12:32 -13.2 °C -15.2 °C 33524.8 hPa NNE 6 km/h 6.3 km/h 78 % 0 mm
12:37 -13.3 °C -15.3 °C 33524.8 hPa East 14.5 km/h 14.5 km/h 78 % 0 mm
12:42 -13.2 °C -15.3 °C 33524.8 hPa ENE 11.9 km/h 11.9 km/h 77 % 0 mm
12:47 -13 °C -15.1 °C 33524.8 hPa SE 9.8 km/h 9.8 km/h 77 % 0 mm
12:52 -12.8 °C -14.9 °C 33524.8 hPa NE 15 km/h 15 km/h 77 % 0 mm
12:57 -12.7 °C -14.9 °C 33524.8 hPa ESE 15 km/h 15 km/h 76 % 0 mm
13:02 -12.6 °C -14.9 °C 33477.4 hPa SW 11.9 km/h 11.9 km/h 75 % 0 mm
13:07 -12.6 °C -15 °C 33477.4 hPa NNE 11.9 km/h 11.9 km/h 74 % 0 mm
13:12 -12.5 °C -14.9 °C 33477.4 hPa ENE 15 km/h 15 km/h 74 % 0 mm
13:17 -12.4 °C -15 °C 33477.4 hPa ESE 17.9 km/h 17.9 km/h 73 % 0 mm
13:22 -12.4 °C -14.9 °C 33477.4 hPa South 9 km/h 9 km/h 73 % 0 mm
13:27 -12.4 °C -15.2 °C 33477.4 hPa ESE 11.9 km/h 11.9 km/h 71 % 0 mm
13:32 -12.3 °C -15.1 °C 33453.7 hPa South 15 km/h 15 km/h 71 % 0 mm
13:37 -12.1 °C -14.8 °C 33453.7 hPa South 11.9 km/h 11.9 km/h 72 % 0 mm
13:42 -11.7 °C -14.6 °C 33453.7 hPa ESE 22.5 km/h 22.5 km/h 70 % 0 mm
13:47 -11.6 °C -14.6 °C 33453.7 hPa ESE 15 km/h 15 km/h 69 % 0 mm
13:52 -11.7 °C -14.7 °C 33453.7 hPa SE 12.2 km/h 12.2 km/h 69 % 0 mm
13:57 -11.6 °C -14.9 °C 33453.7 hPa South 20.9 km/h 20.9 km/h 67 % 0 mm
14:02 -11.7 °C -15.1 °C 33453.7 hPa ESE 23.8 km/h 23.8 km/h 66 % 0 mm
14:07 -11.9 °C -15.2 °C 33453.7 hPa SSW 11.9 km/h 11.9 km/h 67 % 0 mm
14:17 -12 °C -15.2 °C 33419.8 hPa ESE 22 km/h 22 km/h 68 % 0 mm
14:22 -11.9 °C -15.3 °C 33419.8 hPa ESE 32.8 km/h 32.8 km/h 66 % 0 mm
14:27 -11.9 °C -15.4 °C 33419.8 hPa SE 26.9 km/h 26.9 km/h 65 % 0 mm
14:32 -11.9 °C -15.4 °C 33453.7 hPa ESE 25.4 km/h 25.4 km/h 65 % 0 mm
14:37 -11.8 °C -15.4 °C 33453.7 hPa ESE 20.9 km/h 20.9 km/h 64 % 0 mm
14:42 -11.7 °C -15.6 °C 33453.7 hPa SE 25.1 km/h 25.1 km/h 62 % 0 mm
14:47 -11.8 °C -15.7 °C 33453.7 hPa ESE 17.9 km/h 17.9 km/h 62 % 0 mm
14:52 -11.8 °C -15.7 °C 33453.7 hPa ENE 15 km/h 15 km/h 62 % 0 mm
14:57 -11.8 °C -15.6 °C 33453.7 hPa NNE 29.8 km/h 29.8 km/h 63 % 0 mm
15:02 -11.9 °C -15.7 °C 33453.7 hPa South 15 km/h 15 km/h 63 % 0 mm
15:07 -12 °C -15.7 °C 33453.7 hPa ENE 17.9 km/h 17.9 km/h 63 % 0 mm
15:12 -12.1 °C -16 °C 33453.7 hPa ESE 23.8 km/h 23.8 km/h 62 % 0 mm
15:17 -12.2 °C -16.1 °C 33453.7 hPa ESE 15 km/h 15 km/h 62 % 0 mm
15:22 -12.2 °C -15.9 °C 33453.7 hPa South 20.9 km/h 20.9 km/h 63 % 0 mm
15:27 -12.3 °C -16.2 °C 33453.7 hPa ENE 23.8 km/h 24.3 km/h 62 % 0 mm
15:32 -12.4 °C -16.1 °C 33453.7 hPa ESE 16.6 km/h 16.6 km/h 63 % 0 mm
15:42 -12.6 °C -16.3 °C 33453.7 hPa East 17.9 km/h 17.9 km/h 63 % 0 mm
15:47 -12.6 °C -16.2 °C 33453.7 hPa East 15 km/h 15 km/h 64 % 0 mm
15:52 -12.6 °C -16.2 °C 33453.7 hPa SSE 20.9 km/h 20.9 km/h 64 % 0 mm
15:57 -12.6 °C -16.1 °C 33453.7 hPa ENE 20.9 km/h 20.9 km/h 65 % 0 mm
16:02 -13.1 °C -16.3 °C 33477.4 hPa South 15 km/h 15 km/h 67 % 0 mm
16:07 -13.3 °C -16.3 °C 33477.4 hPa ENE 9 km/h 9 km/h 68 % 0 mm
16:12 -13.3 °C -16.3 °C 33477.4 hPa NE 4.2 km/h 4.2 km/h 68 % 0 mm
16:17 -13.3 °C -16.2 °C 33453.7 hPa NE 6 km/h 6 km/h 69 % 0 mm
16:22 -13.3 °C -16 °C 33453.7 hPa NE 6 km/h 6 km/h 71 % 0 mm
16:27 -13.3 °C -16 °C 33453.7 hPa ENE 15 km/h 15 km/h 71 % 0 mm
16:32 -13.2 °C -16.1 °C 33477.4 hPa NNE 8 km/h 8 km/h 70 % 0 mm
16:37 -13.2 °C -16.2 °C 33477.4 hPa NE 11.9 km/h 11.9 km/h 69 % 0 mm
16:42 -13.2 °C -16.1 °C 33477.4 hPa ENE 17.9 km/h 17.9 km/h 70 % 0 mm
16:47 -13.2 °C -16.2 °C 33477.4 hPa NE 14 km/h 14 km/h 69 % 0 mm
16:52 -13.1 °C -16.1 °C 33477.4 hPa ENE 15 km/h 15 km/h 69 % 0 mm
16:57 -13.1 °C -16.2 °C 33477.4 hPa ENE 15 km/h 15 km/h 68 % 0 mm
17:02 -13.1 °C -16.2 °C 33477.4 hPa NNE 17.9 km/h 17.9 km/h 68 % 0 mm
17:07 -13.1 °C -16.3 °C 33477.4 hPa ENE 15.3 km/h 15.3 km/h 67 % 0 mm
17:12 -13.1 °C -16.2 °C 33477.4 hPa NNE 9 km/h 9 km/h 68 % 0 mm
17:17 -13.1 °C -16.2 °C 33477.4 hPa NE 11.9 km/h 11.9 km/h 68 % 0 mm
17:22 -13.1 °C -16.1 °C 33477.4 hPa NNE 11.9 km/h 11.9 km/h 69 % 0 mm
17:27 -13.2 °C -16.2 °C 33477.4 hPa NE 9 km/h 9 km/h 69 % 0 mm
17:37 -13.2 °C -15.9 °C 33386 hPa NNE 15.6 km/h 15.6 km/h 71 % 0 mm
17:42 -13.3 °C -16.1 °C 33386 hPa NE 25.4 km/h 25.4 km/h 71 % 0 mm
17:47 -13.6 °C -16.3 °C 33477.4 hPa ENE 20.9 km/h 20.9 km/h 71 % 0 mm
17:52 -13.8 °C -16.3 °C 33477.4 hPa NNE 15 km/h 15 km/h 73 % 0 mm
17:57 -13.9 °C -16.4 °C 33477.4 hPa NNE 11.9 km/h 11.9 km/h 73 % 0 mm
18:02 -13.9 °C -16.3 °C 33477.4 hPa ESE 15 km/h 15 km/h 74 % 0 mm
18:05 -14.8 °C -16.2 °C 33616.2 hPa NNE 2.6 km/h 10.3 km/h 84 % 76.2 mm
18:07 -13.9 °C -16.3 °C 33477.4 hPa NE 6.3 km/h 6.8 km/h 74 % 0 mm
18:12 -13.9 °C -16.2 °C 33477.4 hPa NNE 17.9 km/h 17.9 km/h 75 % 0 mm
18:15 -14.7 °C -16.2 °C 33616.2 hPa NNE 7.7 km/h 7.7 km/h 83 % 0 mm
18:17 -13.9 °C -16.2 °C 33524.8 hPa NNE 15 km/h 15 km/h 75 % 0 mm
18:22 -13.9 °C -16.2 °C 33524.8 hPa NNE 15 km/h 15 km/h 75 % 0 mm
18:25 -14.7 °C -16.2 °C 33582.3 hPa NNE 2.6 km/h 5.1 km/h 83 % 0 mm
18:27 -13.9 °C -16.2 °C 33524.8 hPa NNE 15 km/h 15 km/h 75 % 0 mm
18:32 -13.9 °C -16.2 °C 33524.8 hPa NNE 15 km/h 15 km/h 75 % 50.8 mm
18:35 -14.7 °C -16.2 °C 33616.2 hPa NNE 5.1 km/h 10.3 km/h 83 % 0 mm
18:37 -13.9 °C -16.2 °C 33524.8 hPa NNE 15 km/h 15 km/h 75 % 50.8 mm
18:42 -13.9 °C -16.2 °C 33524.8 hPa NNE 15 km/h 15 km/h 75 % 50.8 mm
18:45 -14.6 °C -16.2 °C 33616.2 hPa NNE 7.7 km/h 7.7 km/h 82 % 0 mm
18:47 -13.9 °C -16.2 °C 33524.8 hPa NNE 15 km/h 15 km/h 75 % 50.8 mm
18:52 -13.9 °C -16.2 °C 33524.8 hPa NNE 15 km/h 15 km/h 75 % 50.8 mm
18:55 -14.5 °C -16.2 °C 33616.2 hPa NE 5.1 km/h 7.7 km/h 81 % 0 mm
18:57 -13.9 °C -16.2 °C 33524.8 hPa NNE 15 km/h 15 km/h 75 % 50.8 mm
19:02 -13.9 °C -16.2 °C 33524.8 hPa NNE 15 km/h 15.3 km/h 75 % 50.8 mm
19:05 -14.6 °C -16.3 °C 33650.1 hPa NE 2.6 km/h 5.1 km/h 81 % 0 mm
19:07 -13.9 °C -16.2 °C 33524.8 hPa NNE 15 km/h 15 km/h 75 % 50.8 mm
19:15 -14.6 °C -16.3 °C 33650.1 hPa Calm   7.7 km/h 81 % 0 mm
19:17 -13.9 °C -16.2 °C 33524.8 hPa NE 6 km/h 6 km/h 75 % 50.8 mm
19:22 -13.9 °C -16.2 °C 33524.8 hPa ENE 4.2 km/h 4.2 km/h 75 % 50.8 mm
19:25 -14.7 °C -16.2 °C 33650.1 hPa NNW 5.1 km/h 5.1 km/h 82 % 0 mm
19:27 -13.9 °C -16.2 °C 33524.8 hPa ENE 4.2 km/h 4.2 km/h 75 % 50.8 mm
19:32 -13.9 °C -16.2 °C 33477.4 hPa ENE 4.2 km/h 4.2 km/h 75 % 0 mm
19:35 -14.6 °C -16.2 °C 33650.1 hPa NW 5.1 km/h 7.7 km/h 82 % 0 mm
19:37 -13.9 °C -16.2 °C 33477.4 hPa ENE 4.2 km/h 4.2 km/h 75 % 0 mm
19:42 -14.4 °C -16.3 °C 33477.4 hPa NNE 15 km/h 15 km/h 78 % 0 mm
19:45 -14.6 °C -16.2 °C 33650.1 hPa NNE 5.1 km/h 5.1 km/h 81 % 0 mm
19:47 -14.4 °C -16.3 °C 33524.8 hPa WNW 6 km/h 6 km/h 78 % 0 mm
19:52 -14.4 °C -16.4 °C 33524.8 hPa ENE 6 km/h 6 km/h 78 % 0 mm
19:55 -14.6 °C -16.3 °C 33650.1 hPa NNE 5.1 km/h 7.7 km/h 80 % 0 mm
19:57 -14.4 °C -16.4 °C 33524.8 hPa West 7.6 km/h 7.6 km/h 78 % 0 mm
20:02 -14.4 °C -16.4 °C 33545.1 hPa ENE 6 km/h 6 km/h 78 % 0 mm
20:05 -14.6 °C -16.3 °C 33650.1 hPa NNE 2.6 km/h 10.3 km/h 80 % 0 mm
20:07 -14.4 °C -16.4 °C 33545.1 hPa WNW 9.3 km/h 9.3 km/h 78 % 0 mm
20:12 -14.4 °C -16.4 °C 33545.1 hPa NE 8 km/h 8 km/h 78 % 0 mm
20:15 -14.6 °C -16.5 °C 33650.1 hPa NE 5.1 km/h 5.1 km/h 79 % 0 mm
20:17 -14.5 °C -16.3 °C 33545.1 hPa North 9 km/h 9 km/h 79 % 0 mm
20:22 -14.5 °C -16.3 °C 33545.1 hPa NNW 9 km/h 9 km/h 79 % 0 mm
20:25 -14.6 °C -16.5 °C 33650.1 hPa NNE 7.7 km/h 7.7 km/h 79 % 0 mm
20:27 -14.5 °C -16.3 °C 33545.1 hPa WSW 6 km/h 6 km/h 79 % 76.2 mm
20:32 -14.5 °C -16.5 °C 33545.1 hPa WNW 3.1 km/h   78 % 76.2 mm
20:35 -14.6 °C -16.5 °C 33650.1 hPa NE 5.1 km/h 10.3 km/h 79 % 0 mm
20:37 -14.5 °C -16.3 °C 33545.1 hPa SW 6.8 km/h 6.8 km/h 79 % 76.2 mm
20:42 -14.6 °C -16.4 °C 33545.1 hPa SW 6 km/h 6 km/h 79 % 76.2 mm
20:45 -14.5 °C -16.5 °C 33650.1 hPa NE 5.1 km/h 10.3 km/h 78 % 0 mm
20:47 -14.6 °C -16.5 °C 33545.1 hPa SW 9 km/h   79 % 76.2 mm
20:52 -14.7 °C -16.6 °C 33545.1 hPa SW 6 km/h 6 km/h 79 % 76.2 mm
20:55 -14.5 °C -16.5 °C 33650.1 hPa NNE 7.7 km/h 10.3 km/h 78 % 0 mm
20:57 -14.7 °C -16.6 °C 33545.1 hPa SW 6.3 km/h 6.3 km/h 79 % 76.2 mm
21:02 -14.8 °C -16.7 °C 33545.1 hPa WSW 9.8 km/h 11.1 km/h 79 % 76.2 mm
21:05 -14.4 °C -16.4 °C 33650.1 hPa NNE 5.1 km/h 15.6 km/h 78 % 0 mm
21:07 -14.9 °C -16.6 °C 33545.1 hPa SW 11.9 km/h 11.9 km/h 80 % 76.2 mm
21:12 -15 °C -16.7 °C 33545.1 hPa SSW 11.9 km/h 11.9 km/h 81 % 76.2 mm
21:15 -14.4 °C -16.4 °C 33650.1 hPa NNE 7.7 km/h 10.3 km/h 78 % 0 mm
21:17 -15.1 °C -16.8 °C 33582.3 hPa SW 6 km/h 6.8 km/h 81 % 76.2 mm
21:22 -15.2 °C -16.7 °C 33582.3 hPa WSW 6.3 km/h 6.3 km/h 82 % 76.2 mm
21:25 -14.4 °C -16.3 °C 33650.1 hPa NE 5.1 km/h 12.9 km/h 78 % 0 mm
21:27 -15.2 °C -16.9 °C 33582.3 hPa SW 6.3 km/h 6.3 km/h 81 % 0 mm
21:32 -15.2 °C -16.8 °C 33582.3 hPa SW 6.3 km/h 6.3 km/h 82 % 0 mm
21:35 -14.2 °C -16.3 °C 33650.1 hPa NE 12.9 km/h 12.9 km/h 77 % 0 mm
21:37 -15.2 °C -16.8 °C 33582.3 hPa WSW 7.6 km/h 7.6 km/h 82 % 0 mm
21:42 -15.2 °C -16.8 °C 33582.3 hPa WSW 6 km/h 6 km/h 82 % 0 mm
21:47 -15.2 °C -16.8 °C 33582.3 hPa SW 6 km/h 6 km/h 82 % 0 mm
21:52 -15.3 °C -16.7 °C 33582.3 hPa SW 3.1 km/h 3.1 km/h 83 % 0 mm
21:55 -14.1 °C -16.3 °C 33650.1 hPa NNE 12.9 km/h 15.6 km/h 76 % 0 mm
21:57 -15.3 °C -16.8 °C 33582.3 hPa WSW 11.9 km/h 11.9 km/h 82 % 0 mm
22:02 -15.2 °C -16.7 °C 33582.3 hPa ESE 9 km/h 9 km/h 83 % 0 mm
22:05 -14.1 °C -16.3 °C 33650.1 hPa NE 5.1 km/h 15.6 km/h 76 % 0 mm
22:07 -15.2 °C -16.8 °C 33582.3 hPa WSW 6 km/h 6 km/h 82 % 0 mm
22:12 -15.3 °C -16.7 °C 33582.3 hPa SW 9 km/h 9 km/h 83 % 0 mm
22:15 -14.1 °C -16.2 °C 33650.1 hPa NE 7.7 km/h 15.6 km/h 76 % 0 mm
22:17 -15.3 °C -16.7 °C 33545.1 hPa WSW 6 km/h 6 km/h 83 % 0 mm
22:22 -15.3 °C -16.7 °C 33545.1 hPa WSW 3.1 km/h 3.1 km/h 83 % 0 mm
22:25 -14.1 °C -16.2 °C 33650.1 hPa NNE 5.1 km/h 10.3 km/h 76 % 0 mm
22:27 -15.2 °C -16.6 °C 33545.1 hPa WSW 5.1 km/h 5.1 km/h 84 % 0 mm
22:32 -15.2 °C -16.7 °C 33582.3 hPa SW 6 km/h 6 km/h 83 % 0 mm
22:35 -14.1 °C -16.2 °C 33683.9 hPa NE 7.7 km/h 7.7 km/h 76 % 0 mm
22:37 -15.3 °C -16.7 °C 33582.3 hPa SW 6 km/h   83 % 0 mm
22:42 -15.3 °C -16.6 °C 33582.3 hPa Calm     84 % 0 mm
22:45 -14 °C -16.3 °C 33683.9 hPa NE 7.7 km/h 7.7 km/h 75 % 0 mm
22:47 -15.2 °C -16.7 °C 33582.3 hPa SW 6 km/h 6 km/h 83 % 0 mm
22:52 -15.2 °C -16.7 °C 33582.3 hPa WSW 6 km/h 6 km/h 83 % 0 mm
22:55 -14.1 °C -16.4 °C 33683.9 hPa NE 15.6 km/h 18.2 km/h 75 % 0 mm
22:57 -15.2 °C -16.6 °C 33582.3 hPa WSW 6 km/h 6 km/h 83 % 0 mm
23:02 -15.2 °C -16.6 °C 33616.2 hPa SW 6 km/h 6 km/h 84 % 0 mm
23:05 -14.2 °C -16.4 °C 33683.9 hPa NNE 7.7 km/h 12.9 km/h 76 % 0 mm
23:07 -15.2 °C -16.6 °C 33616.2 hPa SW 6 km/h 6.3 km/h 84 % 0 mm
23:12 -15.2 °C -16.6 °C 33616.2 hPa WSW 6 km/h 6 km/h 84 % 0 mm
23:15 -14.3 °C -16.4 °C 33683.9 hPa NE 5.1 km/h 7.7 km/h 76 % 0 mm
23:17 -15.2 °C -16.6 °C 33582.3 hPa SW 2.3 km/h 3.7 km/h 84 % 0 mm
23:22 -15.2 °C -16.4 °C 33582.3 hPa Calm     85 % 0 mm
23:25 -14.3 °C -16.4 °C 33717.8 hPa NE 5.1 km/h 10.3 km/h 76 % 0 mm
23:32 -15 °C -16.3 °C 33582.3 hPa NNE 6 km/h 6 km/h 85 % 0 mm
23:35 -14.3 °C -16.6 °C 33717.8 hPa NE 15.6 km/h 15.6 km/h 75 % 0 mm
23:37 -15 °C -16.3 °C 33582.3 hPa NNW 6 km/h 6 km/h 85 % 0 mm
23:42 -15.1 °C -16.3 °C 33582.3 hPa NNE 3.1 km/h 3.7 km/h 85 % 0 mm
23:45 -14.3 °C -16.5 °C 33717.8 hPa NNE 5.1 km/h 12.9 km/h 76 % 0 mm
23:47 -15 °C -16.3 °C 33582.3 hPa NNE 5.1 km/h 5.1 km/h 85 % 0 mm
23:52 -14.9 °C -16.2 °C 33582.3 hPa NE 6 km/h 6.3 km/h 85 % 0 mm
23:55 -14.3 °C -16.6 °C 33717.8 hPa NNE 7.7 km/h 15.6 km/h 75 % 0 mm
Meteo Sesrovires
Elogis d' Weather Underground - 3.5 mb

Guio original per  Jim McMurry - jmcmurry@mwt.net Adaptat per a la plantilla per  Wim van der Kuil - Leuven-Template.eu

Trobareu la nostra informacio del temps tambe a:

Weather Underground

AWEKAS